Time,TemperatureF,DewpointF,PressureIn,WindDirection,WindDirectionDegrees,WindSpeedMPH,WindSpeedGustMPH,Humidity,HourlyPrecipIn,Conditions,Clouds,dailyrainin,SoftwareType,DateUTC
2013-03-31 00:02:00,31.0,26.0,30.09,ENE,70,0.0,5.0,82,0.00,,,0.00,,2013-03-31 06:02:00,
2013-03-31 00:12:00,31.0,26.0,30.09,ENE,70,0.0,5.0,82,0.00,,,0.00,,2013-03-31 06:12:00,
2013-03-31 00:22:00,31.0,26.0,30.11,ESE,122,1.0,3.0,83,0.00,,,0.00,,2013-03-31 06:22:00,
2013-03-31 00:32:00,29.0,25.0,30.11,NE,42,1.0,7.0,83,0.00,,,0.00,,2013-03-31 06:32:00,
2013-03-31 00:42:00,29.0,25.0,30.11,NE,42,1.0,7.0,83,0.00,,,0.00,,2013-03-31 06:42:00,
2013-03-31 00:52:00,29.0,25.0,30.11,North,354,2.0,5.0,85,0.00,,,0.00,,2013-03-31 06:52:00,
2013-03-31 01:02:00,28.0,24.0,30.11,North,354,0.0,1.0,84,0.00,,,0.00,,2013-03-31 07:02:00,
2013-03-31 01:12:00,28.0,24.0,30.11,North,354,0.0,1.0,84,0.00,,,0.00,,2013-03-31 07:12:00,
2013-03-31 01:22:00,28.0,24.0,30.12,North,354,0.0,2.0,85,0.00,,,0.00,,2013-03-31 07:22:00,
2013-03-31 01:32:00,27.0,23.0,30.12,NW,323,1.0,2.0,86,0.00,,,0.00,,2013-03-31 07:32:00,
2013-03-31 01:42:00,27.0,23.0,30.12,NW,323,1.0,2.0,86,0.00,,,0.00,,2013-03-31 07:42:00,
2013-03-31 01:52:00,28.0,24.0,30.10,NW,323,0.0,1.0,86,0.00,,,0.00,,2013-03-31 07:52:00,
2013-03-31 02:02:00,27.0,23.0,30.10,NW,323,1.0,2.0,86,0.00,,,0.00,,2013-03-31 08:02:00,
2013-03-31 02:12:00,27.0,23.0,30.10,NW,323,1.0,2.0,86,0.00,,,0.00,,2013-03-31 08:12:00,
2013-03-31 02:22:00,26.0,22.0,30.12,NW,323,0.0,1.0,86,0.00,,,0.00,,2013-03-31 08:22:00,
2013-03-31 02:32:00,25.0,22.0,30.12,NW,309,1.0,2.0,87,0.00,,,0.00,,2013-03-31 08:32:00,
2013-03-31 02:42:00,25.0,22.0,30.12,NW,309,1.0,2.0,87,0.00,,,0.00,,2013-03-31 08:42:00,
2013-03-31 02:52:00,25.0,22.0,30.16,NW,309,0.0,1.0,87,0.00,,,0.00,,2013-03-31 08:52:00,
2013-03-31 03:02:00,24.0,21.0,30.16,NW,309,0.0,2.0,87,0.00,,,0.00,,2013-03-31 09:02:00,
2013-03-31 03:12:00,24.0,21.0,30.16,NW,309,0.0,2.0,87,0.00,,,0.00,,2013-03-31 09:12:00,
2013-03-31 03:22:00,24.0,21.0,30.16,NW,309,1.0,2.0,88,0.00,,,0.00,,2013-03-31 09:22:00,
2013-03-31 03:33:00,24.0,21.0,30.16,NW,309,0.0,2.0,88,0.00,,,0.00,,2013-03-31 09:33:00,
2013-03-31 03:42:00,24.0,21.0,30.16,NW,309,0.0,2.0,88,0.00,,,0.00,,2013-03-31 09:42:00,
2013-03-31 03:53:00,24.0,21.0,30.14,NW,309,0.0,1.0,88,0.00,,,0.00,,2013-03-31 09:53:00,
2013-03-31 04:03:00,24.0,21.0,30.14,NW,309,0.0,0.0,88,0.00,,,0.00,,2013-03-31 10:03:00,
2013-03-31 04:13:00,24.0,21.0,30.14,NW,309,0.0,0.0,88,0.00,,,0.00,,2013-03-31 10:13:00,
2013-03-31 04:23:00,23.0,20.0,30.13,NW,309,0.0,2.0,88,0.00,,,0.00,,2013-03-31 10:23:00,
2013-03-31 04:32:00,23.0,20.0,30.13,NW,309,0.0,2.0,88,0.00,,,0.00,,2013-03-31 10:32:00,
2013-03-31 04:42:00,23.0,20.0,30.13,NW,309,0.0,2.0,88,0.00,,,0.00,,2013-03-31 10:42:00,
2013-03-31 04:53:00,23.0,20.0,30.11,NNE,28,2.0,5.0,88,0.00,,,0.00,,2013-03-31 10:53:00,
2013-03-31 05:02:00,23.0,20.0,30.11,North,8,1.0,5.0,89,0.00,,,0.00,,2013-03-31 11:02:00,
2013-03-31 05:12:00,23.0,20.0,30.11,North,8,1.0,5.0,89,0.00,,,0.00,,2013-03-31 11:12:00,
2013-03-31 05:23:00,23.0,20.0,30.10,North,8,1.0,3.0,88,0.00,,,0.00,,2013-03-31 11:23:00,
2013-03-31 05:32:00,22.0,19.0,30.10,North,8,0.0,3.0,88,0.00,,,0.00,,2013-03-31 11:32:00,
2013-03-31 05:42:00,22.0,19.0,30.10,North,8,0.0,3.0,88,0.00,,,0.00,,2013-03-31 11:42:00,
2013-03-31 05:52:00,22.0,19.0,30.12,NNE,18,1.0,3.0,88,0.00,,,0.00,,2013-03-31 11:52:00,
2013-03-31 06:02:00,23.0,20.0,30.12,NE,48,1.0,7.0,89,0.00,,,0.00,,2013-03-31 12:02:00,
2013-03-31 06:12:00,23.0,20.0,30.12,NE,48,1.0,7.0,89,0.00,,,0.00,,2013-03-31 12:12:00,
2013-03-31 06:22:00,25.0,21.0,30.09,SW,216,2.0,5.0,86,0.00,,,0.00,,2013-03-31 12:22:00,
2013-03-31 06:33:00,27.0,23.0,30.09,SW,224,8.0,12.0,84,0.00,,,0.00,,2013-03-31 12:33:00,
2013-03-31 06:42:00,27.0,23.0,30.09,SW,224,8.0,12.0,84,0.00,,,0.00,,2013-03-31 12:42:00,
2013-03-31 06:53:00,37.0,16.0,30.03,SW,235,10.0,20.0,42,0.00,,,0.00,,2013-03-31 12:53:00,
2013-03-31 07:02:00,39.0,14.0,30.03,WSW,248,14.0,22.0,35,0.00,,,0.00,,2013-03-31 13:02:00,
2013-03-31 07:12:00,39.0,14.0,30.03,WSW,248,14.0,22.0,35,0.00,,,0.00,,2013-03-31 13:12:00,
2013-03-31 07:22:00,39.0,12.0,30.00,SW,235,16.0,26.0,32,0.00,,,0.00,,2013-03-31 13:22:00,
2013-03-31 07:32:00,40.0,11.0,30.00,WSW,245,19.0,28.0,30,0.00,,,0.00,,2013-03-31 13:32:00,
2013-03-31 07:42:00,40.0,11.0,30.00,WSW,245,19.0,28.0,30,0.00,,,0.00,,2013-03-31 13:42:00,
2013-03-31 07:53:00,41.0,10.0,30.01,SW,220,20.0,31.0,28,0.00,,,0.00,,2013-03-31 13:53:00,
2013-03-31 08:02:00,41.0,11.0,30.01,SW,223,16.0,28.0,29,0.00,,,0.00,,2013-03-31 14:02:00,
2013-03-31 08:12:00,41.0,11.0,30.01,SW,223,16.0,28.0,29,0.00,,,0.00,,2013-03-31 14:12:00,
2013-03-31 08:22:00,42.0,11.0,29.99,SW,230,17.0,35.0,28,0.00,,,0.00,,2013-03-31 14:22:00,
2013-03-31 08:32:00,43.0,11.0,29.99,SW,233,11.0,25.0,27,0.00,,,0.00,,2013-03-31 14:32:00,
2013-03-31 08:42:00,43.0,11.0,29.99,SW,233,11.0,25.0,27,0.00,,,0.00,,2013-03-31 14:42:00,
2013-03-31 08:52:00,44.0,10.0,29.97,WNW,290,17.0,25.0,24,0.00,,,0.00,,2013-03-31 14:52:00,
2013-03-31 09:02:00,45.0,10.0,29.97,WSW,255,20.0,36.0,24,0.00,,,0.00,,2013-03-31 15:02:00,
2013-03-31 09:12:00,45.0,10.0,29.97,WSW,255,20.0,36.0,24,0.00,,,0.00,,2013-03-31 15:12:00,
2013-03-31 09:22:00,46.0,10.0,29.97,West,266,22.0,35.0,23,0.00,,,0.00,,2013-03-31 15:22:00,
2013-03-31 09:33:00,46.0,10.0,29.97,SW,224,21.0,35.0,23,0.00,,,0.00,,2013-03-31 15:33:00,
2013-03-31 09:43:00,46.0,10.0,29.97,SW,224,21.0,35.0,23,0.00,,,0.00,,2013-03-31 15:43:00,
2013-03-31 09:54:00,47.0,11.0,29.96,SW,220,17.0,32.0,23,0.00,,,0.00,,2013-03-31 15:54:00,
2013-03-31 10:03:00,47.0,11.0,29.96,SW,228,18.0,35.0,23,0.00,,,0.00,,2013-03-31 16:03:00,
2013-03-31 10:13:00,47.0,11.0,29.96,SW,228,18.0,35.0,23,0.00,,,0.00,,2013-03-31 16:13:00,
2013-03-31 10:23:00,48.0,11.0,29.93,SW,234,21.0,32.0,22,0.00,,,0.00,,2013-03-31 16:23:00,
2013-03-31 10:33:00,49.0,11.0,29.93,WSW,237,13.0,29.0,21,0.00,,,0.00,,2013-03-31 16:33:00,
2013-03-31 10:42:00,49.0,11.0,29.93,WSW,237,13.0,29.0,21,0.00,,,0.00,,2013-03-31 16:42:00,
2013-03-31 10:53:00,50.0,12.0,29.93,West,272,14.0,22.0,21,0.00,,,0.00,,2013-03-31 16:53:00,
2013-03-31 11:03:00,50.0,12.0,29.93,SW,221,16.0,26.0,21,0.00,,,0.00,,2013-03-31 17:03:00,
2013-03-31 11:12:00,50.0,12.0,29.93,SW,221,16.0,26.0,21,0.00,,,0.00,,2013-03-31 17:12:00,
2013-03-31 11:22:00,51.0,10.0,29.92,WSW,245,17.0,28.0,19,0.00,,,0.00,,2013-03-31 17:22:00,
2013-03-31 11:32:00,51.0,10.0,29.92,West,268,15.0,29.0,19,0.00,,,0.00,,2013-03-31 17:32:00,
2013-03-31 11:42:00,51.0,10.0,29.92,West,268,15.0,29.0,19,0.00,,,0.00,,2013-03-31 17:42:00,
2013-03-31 11:52:00,52.0,11.0,29.94,WSW,248,16.0,26.0,19,0.00,,,0.00,,2013-03-31 17:52:00,
2013-03-31 12:02:00,52.0,12.0,29.94,West,271,12.0,26.0,20,0.00,,,0.00,,2013-03-31 18:02:00,
2013-03-31 12:12:00,52.0,12.0,29.94,West,271,12.0,26.0,20,0.00,,,0.00,,2013-03-31 18:12:00,
2013-03-31 12:22:00,52.0,13.0,29.95,WSW,240,20.0,29.0,21,0.00,,,0.00,,2013-03-31 18:22:00,
2013-03-31 12:32:00,53.0,13.0,29.95,West,275,17.0,29.0,20,0.00,,,0.00,,2013-03-31 18:32:00,
2013-03-31 12:42:00,53.0,13.0,29.95,West,275,17.0,29.0,20,0.00,,,0.00,,2013-03-31 18:42:00,
2013-03-31 12:53:00,54.0,13.0,29.96,WSW,252,17.0,25.0,19,0.00,,,0.00,,2013-03-31 18:53:00,
2013-03-31 13:03:00,54.0,14.0,29.96,WNW,290,14.0,26.0,20,0.00,,,0.00,,2013-03-31 19:03:00,
2013-03-31 13:12:00,54.0,14.0,29.96,WNW,290,14.0,26.0,20,0.00,,,0.00,,2013-03-31 19:12:00,
2013-03-31 13:22:00,55.0,12.0,29.94,West,280,15.0,28.0,18,0.00,,,0.00,,2013-03-31 19:22:00,
2013-03-31 13:32:00,56.0,12.0,29.94,WSW,239,18.0,29.0,17,0.00,,,0.00,,2013-03-31 19:32:00,
2013-03-31 13:42:00,56.0,12.0,29.94,WSW,239,18.0,29.0,17,0.00,,,0.00,,2013-03-31 19:42:00,
2013-03-31 13:54:00,56.0,14.0,29.95,SW,234,14.0,29.0,19,0.00,,,0.00,,2013-03-31 19:54:00,
2013-03-31 14:02:00,57.0,13.0,29.95,WNW,295,16.0,30.0,17,0.00,,,0.00,,2013-03-31 20:02:00,
2013-03-31 14:12:00,57.0,13.0,29.95,WNW,295,16.0,30.0,17,0.00,,,0.00,,2013-03-31 20:12:00,
2013-03-31 14:22:00,56.0,13.0,29.93,SSW,208,14.0,24.0,18,0.00,,,0.00,,2013-03-31 20:22:00,
2013-03-31 14:33:00,56.0,12.0,29.93,WSW,248,14.0,21.0,17,0.00,,,0.00,,2013-03-31 20:33:00,
2013-03-31 14:43:00,56.0,12.0,29.93,WSW,248,14.0,21.0,17,0.00,,,0.00,,2013-03-31 20:43:00,
2013-03-31 14:53:00,57.0,11.0,29.92,West,261,9.0,28.0,16,0.00,,,0.00,,2013-03-31 20:53:00,
2013-03-31 15:02:00,58.0,15.0,29.92,WNW,293,12.0,20.0,18,0.00,,,0.00,,2013-03-31 21:02:00,
2013-03-31 15:12:00,58.0,15.0,29.92,WNW,293,12.0,20.0,18,0.00,,,0.00,,2013-03-31 21:12:00,
2013-03-31 15:22:00,58.0,6.0,29.92,WSW,248,10.0,20.0,12,0.00,,,0.00,,2013-03-31 21:22:00,
2013-03-31 15:33:00,59.0,10.0,29.92,WSW,242,11.0,20.0,14,0.00,,,0.00,,2013-03-31 21:33:00,
2013-03-31 15:43:00,59.0,10.0,29.92,WSW,242,11.0,20.0,14,0.00,,,0.00,,2013-03-31 21:43:00,
2013-03-31 15:53:00,58.0,2.0,29.91,SW,235,7.0,26.0,10,0.00,,,0.00,,2013-03-31 21:53:00,
2013-03-31 16:03:00,58.0,0.0,29.91,WSW,247,12.0,25.0,9,0.00,,,0.00,,2013-03-31 22:03:00,
2013-03-31 16:13:00,58.0,0.0,29.91,WSW,247,12.0,25.0,9,0.00,,,0.00,,2013-03-31 22:13:00,
2013-03-31 16:23:00,58.0,0.0,29.91,West,265,16.0,24.0,9,0.00,,,0.00,,2013-03-31 22:23:00,
2013-03-31 16:33:00,58.0,0.0,29.91,West,271,10.0,21.0,9,0.00,,,0.00,,2013-03-31 22:33:00,
2013-03-31 16:42:00,58.0,0.0,29.91,West,271,10.0,21.0,9,0.00,,,0.00,,2013-03-31 22:42:00,
2013-03-31 16:53:00,58.0,-6.0,29.92,WSW,258,16.0,25.0,7,0.00,,,0.00,,2013-03-31 22:53:00,
2013-03-31 17:03:00,58.0,-6.0,29.92,West,272,12.0,24.0,7,0.00,,,0.00,,2013-03-31 23:03:00,
2013-03-31 17:13:00,58.0,-6.0,29.92,West,272,12.0,24.0,7,0.00,,,0.00,,2013-03-31 23:13:00,
2013-03-31 17:22:00,57.0,-4.0,29.93,NW,314,12.0,21.0,8,0.00,,,0.00,,2013-03-31 23:22:00,
2013-03-31 17:32:00,57.0,-4.0,29.93,WSW,251,13.0,21.0,8,0.00,,,0.00,,2013-03-31 23:32:00,
2013-03-31 17:42:00,57.0,-4.0,29.93,WSW,251,13.0,21.0,8,0.00,,,0.00,,2013-03-31 23:42:00,
2013-03-31 17:53:00,57.0,-1.0,29.92,WNW,289,11.0,18.0,9,0.00,,,0.00,,2013-03-31 23:53:00,
2013-03-31 18:02:00,57.0,-4.0,29.92,WNW,285,11.0,21.0,8,0.00,,,0.00,,2013-04-01 00:02:00,
2013-03-31 18:12:00,57.0,-4.0,29.92,WNW,285,11.0,21.0,8,0.00,,,0.00,,2013-04-01 00:12:00,
2013-03-31 18:22:00,56.0,-2.0,29.92,WNW,300,10.0,20.0,9,0.00,,,0.00,,2013-04-01 00:22:00,
2013-03-31 18:32:00,55.0,-3.0,29.92,WNW,286,12.0,18.0,9,0.00,,,0.00,,2013-04-01 00:32:00,
2013-03-31 18:42:00,55.0,-3.0,29.92,WNW,286,12.0,18.0,9,0.00,,,0.00,,2013-04-01 00:42:00,
2013-03-31 18:53:00,56.0,0.0,29.81,ESE,122,6.0,17.0,10,0.00,,,0.00,,2013-04-01 00:53:00,
2013-03-31 19:02:00,55.0,1.0,29.82,NNW,331,5.0,12.0,11,0.00,,,0.00,,2013-04-01 01:02:00,
2013-03-31 19:12:00,55.0,1.0,29.82,NNW,331,5.0,12.0,11,0.00,,,0.00,,2013-04-01 01:12:00,
2013-03-31 19:22:00,53.0,2.0,29.85,NNW,348,5.0,12.0,12,0.00,,,0.00,,2013-04-01 01:22:00,
2013-03-31 19:32:00,51.0,2.0,29.85,NE,46,3.0,8.0,13,0.00,,,0.00,,2013-04-01 01:32:00,
2013-03-31 19:42:00,51.0,2.0,29.85,NE,46,3.0,8.0,13,0.00,,,0.00,,2013-04-01 01:42:00,
2013-03-31 19:53:00,49.0,2.0,29.88,North,351,3.0,7.0,14,0.00,,,0.00,,2013-04-01 01:53:00,
2013-03-31 20:02:00,47.0,2.0,29.88,NNW,331,2.0,6.0,15,0.00,,,0.00,,2013-04-01 02:02:00,
2013-03-31 20:12:00,47.0,2.0,29.88,NNW,331,2.0,6.0,15,0.00,,,0.00,,2013-04-01 02:12:00,
2013-03-31 20:22:00,47.0,3.0,29.91,NNW,337,2.0,6.0,16,0.00,,,0.00,,2013-04-01 02:22:00,
2013-03-31 20:32:00,46.0,4.0,29.91,NNE,21,1.0,5.0,17,0.00,,,0.00,,2013-04-01 02:32:00,
2013-03-31 20:42:00,46.0,4.0,29.91,NNE,21,1.0,5.0,17,0.00,,,0.00,,2013-04-01 02:42:00,
2013-03-31 20:53:00,43.0,5.0,29.93,SSW,213,0.0,6.0,20,0.00,,,0.00,,2013-04-01 02:53:00,
2013-03-31 21:02:00,42.0,6.0,29.93,SSW,213,1.0,2.0,22,0.00,,,0.00,,2013-04-01 03:02:00,
2013-03-31 21:12:00,42.0,6.0,29.93,SSW,213,1.0,2.0,22,0.00,,,0.00,,2013-04-01 03:12:00,
2013-03-31 21:22:00,40.0,7.0,29.95,SW,214,2.0,3.0,25,0.00,,,0.00,,2013-04-01 03:22:00,
2013-03-31 21:34:00,39.0,9.0,29.95,West,262,2.0,6.0,28,0.00,,,0.00,,2013-04-01 03:34:00,
2013-03-31 21:43:00,39.0,9.0,29.95,West,262,2.0,6.0,28,0.00,,,0.00,,2013-04-01 03:43:00,
2013-03-31 21:53:00,35.0,7.0,29.99,NNE,19,3.0,10.0,31,0.00,,,0.00,,2013-04-01 03:53:00,
2013-03-31 22:02:00,37.0,8.0,29.99,East,97,1.0,6.0,30,0.00,,,0.00,,2013-04-01 04:02:00,
2013-03-31 22:13:00,37.0,8.0,29.99,East,97,1.0,6.0,30,0.00,,,0.00,,2013-04-01 04:13:00,
2013-03-31 22:23:00,38.0,9.0,29.99,East,97,1.0,6.0,30,0.00,,,0.00,,2013-04-01 04:23:00,
2013-03-31 22:32:00,37.0,11.0,30.00,East,97,1.0,2.0,34,0.00,,,0.00,,2013-04-01 04:32:00,
2013-03-31 22:43:00,37.0,11.0,30.00,East,97,1.0,2.0,34,0.00,,,0.00,,2013-04-01 04:43:00,
2013-03-31 22:52:00,36.0,12.0,29.98,East,97,2.0,3.0,37,0.00,,,0.00,,2013-04-01 04:52:00,
2013-03-31 23:02:00,35.0,11.0,29.98,NE,48,3.0,5.0,37,0.00,,,0.00,,2013-04-01 05:02:00,
2013-03-31 23:12:00,35.0,11.0,29.98,NE,48,3.0,5.0,37,0.00,,,0.00,,2013-04-01 05:12:00,
2013-03-31 23:22:00,34.0,13.0,30.00,NE,48,1.0,2.0,41,0.00,,,0.00,,2013-04-01 05:22:00,
2013-03-31 23:32:00,34.0,14.0,30.00,NE,48,0.0,2.0,44,0.00,,,0.00,,2013-04-01 05:32:00,
2013-03-31 23:42:00,34.0,14.0,30.00,NE,48,0.0,2.0,44,0.00,,,0.00,,2013-04-01 05:42:00,
2013-03-31 23:53:00,33.0,15.0,30.00,NNW,337,2.0,3.0,46,0.00,,,0.00,,2013-04-01 05:53:00,